Time;durP1;ratioP1;P1;durP2;ratioP2;P2;SDS_P1;SDS_P2;PMS_P1;PMS_P2;Temp;Humidity;BMP_temperature;BMP_pressure;BME280_temperature;BME280_humidity;BME280_pressure;Samples;Min_cycle;Max_cycle;Signal;HPM_P1;HPM_P2
2022/03/17 00:00:47;;;;;;;31.15;15.15;;;;;;;9.09;91.64;98904.25;5073112;28;20052;-67
2022/03/17 00:03:12;;;;;;;34.95;16.83;;;;;;;8.98;92.27;98906.97;5085450;28;20028;-67
2022/03/17 00:05:38;;;;;;;31.65;14.75;;;;;;;8.93;92.56;98902.66;5085087;28;20039;-67
2022/03/17 00:08:04;;;;;;;30.92;15.95;;;;;;;8.98;92.13;98895.63;5085165;28;20039;-67
2022/03/17 00:10:29;;;;;;;28.70;14.38;;;;;;;8.90;92.77;98902.66;5084974;28;20035;-67
2022/03/17 00:12:55;;;;;;;27.95;14.48;;;;;;;8.94;92.48;98904.38;5085283;28;20056;-67
2022/03/17 00:15:21;;;;;;;30.48;15.07;;;;;;;8.97;92.41;98893.84;5084802;28;20277;-67
2022/03/17 00:17:47;;;;;;;32.28;16.45;;;;;;;8.90;92.57;98905.28;5083298;28;20024;-67
2022/03/17 00:20:14;;;;;;;33.75;14.57;;;;;;;8.82;92.47;98906.22;5085125;28;20117;-67
2022/03/17 00:22:40;;;;;;;32.03;15.07;;;;;;;8.64;93.75;98909.00;5084874;28;20036;-67
2022/03/17 00:25:06;;;;;;;35.90;16.58;;;;;;;8.56;94.70;98900.31;5084759;28;20044;-67
2022/03/17 00:27:33;;;;;;;27.70;14.25;;;;;;;8.43;94.68;98905.66;5084791;28;20048;-67
2022/03/17 00:29:59;;;;;;;39.22;17.33;;;;;;;8.40;95.72;98910.91;5084652;28;20020;-67
2022/03/17 00:32:24;;;;;;;31.77;14.68;;;;;;;8.39;96.35;98909.19;5072694;28;20062;-67
2022/03/17 00:37:35;;;;;;;43.72;16.92;;;;;;;8.24;96.12;98915.41;5063887;28;20111;-67
2022/03/17 00:40:00;;;;;;;40.45;16.15;;;;;;;8.20;95.97;98923.25;5064526;28;20322;-67
2022/03/17 00:42:27;;;;;;;35.03;16.35;;;;;;;8.12;96.48;98919.78;5064498;28;20212;-67
2022/03/17 00:44:54;;;;;;;35.03;15.50;;;;;;;8.10;96.71;98914.53;5064373;28;20028;-67
2022/03/17 00:47:20;;;;;;;33.78;15.77;;;;;;;8.09;96.89;98923.31;5064643;28;20017;-67
2022/03/17 00:49:45;;;;;;;31.75;14.40;;;;;;;8.09;97.48;98925.03;5064374;28;20020;-67
2022/03/17 00:52:12;;;;;;;33.72;14.90;;;;;;;8.08;97.09;98929.44;5072566;28;20016;-67
2022/03/17 00:54:41;;;;;;;32.47;14.30;;;;;;;8.07;97.61;98932.91;5084221;28;20016;-67
2022/03/17 00:57:12;;;;;;;36.40;12.85;;;;;;;7.99;97.70;98934.72;5084255;28;20102;-67
2022/03/17 00:59:40;;;;;;;32.78;15.45;;;;;;;7.94;97.39;98933.84;5084213;28;20028;-67
2022/03/17 01:02:06;;;;;;;30.67;15.82;;;;;;;7.93;97.94;98931.22;5084270;28;20056;-67
2022/03/17 01:04:32;;;;;;;29.95;14.52;;;;;;;7.97;97.98;98928.59;5084113;28;20336;-67
2022/03/17 01:06:58;;;;;;;33.55;14.02;;;;;;;7.96;98.36;98931.22;5084387;28;20025;-67
2022/03/17 01:09:23;;;;;;;31.77;14.30;;;;;;;7.98;98.24;98942.59;5084105;28;20399;-67
2022/03/17 01:11:49;;;;;;;32.55;14.73;;;;;;;7.93;98.71;98934.72;5084042;28;20024;-67
2022/03/17 01:14:14;;;;;;;34.75;14.40;;;;;;;7.82;98.58;98936.50;5083916;28;20059;-67
2022/03/17 01:16:41;;;;;;;28.98;14.00;;;;;;;7.77;99.10;98935.66;5080698;28;20020;-67
2022/03/17 01:19:06;;;;;;;27.63;13.30;;;;;;;7.74;99.47;98938.31;5064201;28;20227;-67
2022/03/17 01:21:32;;;;;;;30.85;13.07;;;;;;;7.80;98.74;98932.16;5063893;28;20036;-67
2022/03/17 01:23:58;;;;;;;39.17;17.42;;;;;;;7.78;98.60;98942.66;5063844;28;20024;-67
2022/03/17 01:26:23;;;;;;;39.63;17.38;;;;;;;7.80;99.00;98934.78;5063762;28;20029;-67
2022/03/17 01:28:49;;;;;;;37.88;16.92;;;;;;;7.81;99.34;98934.78;5064088;28;20052;-67
2022/03/17 01:31:14;;;;;;;39.80;14.38;;;;;;;7.78;99.34;98940.03;5063805;28;20037;-67
2022/03/17 01:33:40;;;;;;;31.30;14.32;;;;;;;7.84;99.12;98940.00;5063810;28;20025;-67
2022/03/17 01:36:05;;;;;;;30.05;15.30;;;;;;;7.83;99.34;98937.38;5063793;28;20021;-67
2022/03/17 01:38:30;;;;;;;32.92;13.68;;;;;;;7.77;99.26;98937.41;5064034;28;20328;-67
2022/03/17 01:40:56;;;;;;;30.52;13.65;;;;;;;7.76;99.24;98940.91;5063950;28;20320;-67
2022/03/17 01:43:21;;;;;;;31.08;15.43;;;;;;;7.70;99.55;98933.97;5063671;28;20321;-67
2022/03/17 01:45:47;;;;;;;37.28;16.80;;;;;;;7.74;100.00;98933.06;5073578;28;20208;-67
2022/03/17 01:48:12;;;;;;;30.83;14.40;;;;;;;7.79;99.49;98936.50;5085730;28;20028;-67
2022/03/17 01:50:38;;;;;;;32.90;15.30;;;;;;;7.80;99.05;98933.03;5087794;28;20032;-67
2022/03/17 01:53:04;;;;;;;33.08;14.65;;;;;;;7.71;99.20;98935.69;5087777;28;20255;-67
2022/03/17 01:55:30;;;;;;;30.40;14.55;;;;;;;7.58;99.32;98927.88;5087684;28;20247;-67
2022/03/17 01:57:57;;;;;;;30.25;14.13;;;;;;;7.57;100.00;98923.50;5087626;28;20224;-67
2022/03/17 02:00:22;;;;;;;47.58;19.92;;;;;;;7.61;100.00;98938.34;5087584;28;20028;-67
2022/03/17 02:02:50;;;;;;;38.67;18.42;;;;;;;7.73;99.96;98946.16;5087764;28;20028;-67
2022/03/17 02:05:17;;;;;;;43.00;18.88;;;;;;;7.77;99.28;98938.28;5087386;28;20123;-67
2022/03/17 02:07:47;;;;;;;38.60;17.60;;;;;;;7.75;99.52;98953.13;5087700;28;20025;-67
2022/03/17 02:10:12;;;;;;;32.47;13.48;;;;;;;7.76;99.66;98956.63;5087311;28;20032;-67
2022/03/17 02:15:22;;;;;;;27.52;14.30;;;;;;;7.66;99.27;98955.78;5073902;28;20036;-67
2022/03/17 02:17:48;;;;;;;26.85;13.05;;;;;;;7.68;99.38;98954.03;5067209;28;20028;-67
2022/03/17 02:20:15;;;;;;;28.77;13.77;;;;;;;7.69;99.50;98960.16;5067427;28;20113;-67
2022/03/17 02:22:47;;;;;;;29.45;13.60;;;;;;;7.68;99.30;98963.63;5067079;28;20021;-67
2022/03/17 02:27:59;;;;;;;27.58;13.57;;;;;;;7.65;99.57;98964.53;5067067;28;20067;-67
2022/03/17 02:30:25;;;;;;;28.35;14.55;;;;;;;7.63;99.88;98970.66;5067014;28;20017;-67
2022/03/17 02:32:59;;;;;;;30.98;13.98;;;;;;;7.65;99.74;98964.53;5066962;28;20083;-67
2022/03/17 02:35:25;;;;;;;34.30;14.45;;;;;;;7.61;99.89;98973.28;5068242;28;20031;-67
2022/03/17 02:37:51;;;;;;;35.50;17.33;;;;;;;7.52;99.91;98968.03;5086870;28;20276;-67
2022/03/17 02:40:17;;;;;;;39.92;18.23;;;;;;;7.48;99.92;98968.94;5086880;28;20035;-67
2022/03/17 02:42:42;;;;;;;38.60;17.27;;;;;;;7.52;100.00;98968.03;5086825;28;20028;-67
2022/03/17 02:45:12;;;;;;;49.65;19.50;;;;;;;7.54;100.00;98966.31;5086668;28;20025;-67
2022/03/17 02:47:39;;;;;;;31.70;14.45;;;;;;;7.54;100.00;98968.94;5086720;28;20031;-67
2022/03/17 02:50:06;;;;;;;37.65;17.08;;;;;;;7.56;100.00;98966.31;5085030;28;20079;-67
2022/03/17 02:52:31;;;;;;;33.42;15.23;;;;;;;7.60;100.00;98976.78;5086345;28;20028;-67
2022/03/17 02:54:57;;;;;;;35.30;16.98;;;;;;;7.56;100.00;98972.41;5086565;28;20103;-67
2022/03/17 02:57:23;;;;;;;33.67;16.30;;;;;;;7.56;100.00;98980.25;5086522;28;20028;-67
2022/03/17 02:59:48;;;;;;;34.10;15.25;;;;;;;7.57;100.00;98982.03;5085884;28;20021;-67
2022/03/17 03:02:17;;;;;;;40.42;15.88;;;;;;;7.52;100.00;98977.63;5086479;28;20276;-67
2022/03/17 03:04:43;;;;;;;35.47;15.75;;;;;;;7.55;100.00;98982.88;5076027;28;20025;-67
2022/03/17 03:07:09;;;;;;;35.70;15.30;;;;;;;7.54;100.00;98981.13;5066301;28;20194;-67
2022/03/17 03:09:34;;;;;;;34.95;16.38;;;;;;;7.50;100.00;98985.50;5066273;28;20298;-67
2022/03/17 03:12:02;;;;;;;35.38;16.90;;;;;;;7.48;100.00;98991.63;5066234;28;20085;-67
2022/03/17 03:14:29;;;;;;;32.92;15.00;;;;;;;7.55;100.00;98994.22;5065830;28;20049;-67
2022/03/17 03:16:54;;;;;;;36.00;16.35;;;;;;;7.56;100.00;98990.72;5067271;28;20073;-67
2022/03/17 03:19:20;;;;;;;32.10;14.40;;;;;;;7.50;100.00;98990.75;5066060;28;20324;-67
2022/03/17 03:21:45;;;;;;;35.17;15.80;;;;;;;7.40;100.00;98988.16;5066047;28;20086;-67
2022/03/17 03:24:12;;;;;;;37.15;16.48;;;;;;;7.37;100.00;98991.63;5065910;28;20312;-67
2022/03/17 03:26:42;;;;;;;29.17;15.63;;;;;;;7.38;100.00;98996.00;5066115;28;20052;-66
2022/03/17 03:29:25;;;;;;;33.78;14.20;;;;;;;7.37;100.00;98994.25;5066260;28;20025;-66
2022/03/17 03:31:56;;;;;;;27.75;15.20;;;;;;;7.37;100.00;98989.00;5066141;28;20092;-66
2022/03/17 03:34:23;;;;;;;37.22;15.18;;;;;;;7.43;100.00;98994.25;5066911;28;20029;-66
2022/03/17 03:39:34;;;;;;;30.42;14.75;;;;;;;7.49;100.00;98985.50;5065862;28;20359;-66
2022/03/17 03:42:00;;;;;;;38.35;16.42;;;;;;;7.45;100.00;98982.03;5064515;28;20020;-66
2022/03/17 03:44:25;;;;;;;39.35;17.95;;;;;;;7.43;100.00;98989.00;5065530;28;20059;-66
2022/03/17 03:46:51;;;;;;;36.92;17.60;;;;;;;7.44;100.00;98982.88;5065507;28;20025;-66
2022/03/17 03:49:17;;;;;;;36.47;18.10;;;;;;;7.46;100.00;98983.78;5065521;28;20088;-66
2022/03/17 03:51:43;;;;;;;32.30;14.32;;;;;;;7.52;100.00;98983.75;5065423;28;20267;-66
2022/03/17 03:54:16;;;;;;;37.28;14.50;;;;;;;7.52;100.00;98986.38;5065438;28;20032;-66
2022/03/17 03:56:53;;;;;;;29.85;14.25;;;;;;;7.53;100.00;98990.72;5065326;28;20017;-66
2022/03/17 03:59:24;;;;;;;36.20;17.40;;;;;;;7.51;100.00;98992.50;5065312;28;20029;-66
2022/03/17 04:01:54;;;;;;;33.42;15.57;;;;;;;7.56;100.00;98995.97;5065268;28;20017;-66
2022/03/17 04:04:21;;;;;;;35.65;15.70;;;;;;;7.53;100.00;99001.22;5065550;28;20028;-66
2022/03/17 04:06:48;;;;;;;34.95;15.98;;;;;;;7.54;100.00;98997.75;5065096;28;20033;-66
2022/03/17 04:09:14;;;;;;;39.45;17.80;;;;;;;7.53;100.00;99006.44;5065126;28;20025;-66
2022/03/17 04:11:41;;;;;;;33.63;15.32;;;;;;;7.54;100.00;99017.81;5065012;28;20228;-66
2022/03/17 04:14:07;;;;;;;29.15;15.52;;;;;;;7.54;100.00;99018.69;5064844;28;20040;-66
2022/03/17 04:16:33;;;;;;;35.72;17.00;;;;;;;7.53;100.00;99006.44;5065243;28;20017;-66
2022/03/17 04:18:59;;;;;;;35.47;17.33;;;;;;;7.43;100.00;99015.19;5064905;28;20029;-66
2022/03/17 04:21:24;;;;;;;33.50;15.70;;;;;;;7.46;100.00;99017.81;5064920;28;20036;-66
2022/03/17 04:23:50;;;;;;;42.90;17.52;;;;;;;7.43;100.00;99024.81;5064854;28;20056;-66
2022/03/17 04:26:16;;;;;;;28.63;14.13;;;;;;;7.47;100.00;99027.41;5064742;28;20228;-66
2022/03/17 04:28:41;;;;;;;30.15;15.38;;;;;;;7.45;100.00;99034.41;5064805;28;20024;-66
2022/03/17 04:31:07;;;;;;;33.67;14.85;;;;;;;7.42;100.00;99029.19;5064663;28;20056;-66
2022/03/17 04:33:32;;;;;;;34.03;15.18;;;;;;;7.35;100.00;99039.66;5064881;28;20025;-66
2022/03/17 04:35:57;;;;;;;34.95;16.52;;;;;;;7.35;100.00;99043.16;5064607;28;20255;-66
2022/03/17 04:38:23;;;;;;;36.80;16.48;;;;;;;7.33;100.00;99039.66;5065717;28;20025;-66
2022/03/17 04:40:49;;;;;;;38.13;17.65;;;;;;;7.42;100.00;99049.25;5064537;28;20025;-66
2022/03/17 04:43:18;;;;;;;35.25;17.10;;;;;;;7.50;100.00;99060.59;5064725;28;20308;-66
2022/03/17 04:45:46;;;;;;;42.95;19.15;;;;;;;7.47;100.00;99063.22;5064589;28;20047;-66
2022/03/17 04:48:12;;;;;;;38.75;16.48;;;;;;;7.47;100.00;99069.31;5064388;28;20079;-66
2022/03/17 04:50:37;;;;;;;32.47;14.68;;;;;;;7.46;100.00;99078.06;5064367;28;20029;-66
2022/03/17 04:55:47;;;;;;;30.17;14.35;;;;;;;7.47;100.00;99089.41;5064349;28;20271;-66
2022/03/17 04:58:13;;;;;;;32.42;15.93;;;;;;;7.43;100.00;99092.91;5064237;28;20024;-66
2022/03/17 05:00:39;;;;;;;27.33;13.35;;;;;;;7.49;100.00;99088.53;5064169;28;20021;-66
2022/03/17 05:03:05;;;;;;;33.10;15.90;;;;;;;7.46;100.00;99109.47;5062854;28;20020;-66
2022/03/17 05:05:30;;;;;;;35.30;16.38;;;;;;;7.45;100.00;99106.84;5064290;28;20021;-66
2022/03/17 05:07:57;;;;;;;34.75;16.15;;;;;;;7.47;100.00;99110.38;5063193;28;20048;-66
2022/03/17 05:10:23;;;;;;;36.60;15.57;;;;;;;7.42;100.00;99106.84;5063318;28;20095;-66
2022/03/17 05:12:48;;;;;;;31.20;14.60;;;;;;;7.44;100.00;99108.59;5063078;28;20374;-66
2022/03/17 05:15:14;;;;;;;32.72;15.70;;;;;;;7.49;100.00;99113.84;5062934;28;20045;-66
2022/03/17 05:17:40;;;;;;;34.03;15.63;;;;;;;7.47;100.00;99120.84;5062631;28;20020;-66
2022/03/17 05:20:10;;;;;;;32.33;14.18;;;;;;;7.49;100.00;99124.31;5063521;28;20052;-66
2022/03/17 05:22:36;;;;;;;34.00;14.95;;;;;;;7.52;100.00;99130.44;5064223;28;20021;-66
2022/03/17 05:25:03;;;;;;;32.72;14.98;;;;;;;7.52;100.00;99124.31;5063110;28;20056;-66
2022/03/17 05:27:30;;;;;;;32.15;14.38;;;;;;;7.44;100.00;99126.91;5062924;28;20373;-66
2022/03/17 05:29:55;;;;;;;32.50;14.52;;;;;;;7.42;100.00;99133.94;5062747;28;20325;-66
2022/03/17 05:32:21;;;;;;;35.00;15.82;;;;;;;7.44;100.00;99126.91;5063820;28;20028;-66
2022/03/17 05:34:46;;;;;;;35.90;15.65;;;;;;;7.45;100.00;99144.41;5063753;28;20208;-66
2022/03/17 05:37:11;;;;;;;34.85;15.35;;;;;;;7.49;100.00;99140.91;5066783;28;20021;-66
2022/03/17 05:39:37;;;;;;;31.08;15.35;;;;;;;7.49;100.00;99143.53;5063727;28;20062;-66
2022/03/17 05:42:03;;;;;;;31.70;14.82;;;;;;;7.46;100.00;99140.91;5063684;28;20028;-66
2022/03/17 05:44:28;;;;;;;30.05;13.30;;;;;;;7.47;100.00;99140.03;5063877;28;20024;-66
2022/03/17 05:46:54;;;;;;;39.80;16.65;;;;;;;7.48;100.00;99149.66;5063679;28;20082;-66
2022/03/17 05:49:19;;;;;;;31.17;14.80;;;;;;;7.46;100.00;99146.13;5063875;28;20017;-66
2022/03/17 05:51:45;;;;;;;31.63;15.13;;;;;;;7.48;100.00;99149.66;5063644;28;20021;-66
2022/03/17 05:54:11;;;;;;;32.40;15.60;;;;;;;7.47;100.00;99153.13;5063823;28;20021;-66
2022/03/17 05:56:36;;;;;;;30.35;15.07;;;;;;;7.51;100.00;99160.13;5063550;28;20027;-66
2022/03/17 05:59:02;;;;;;;29.55;14.18;;;;;;;7.53;100.00;99158.38;5063831;28;20074;-66
2022/03/17 06:01:27;;;;;;;35.15;15.60;;;;;;;7.48;100.00;99160.13;5063506;28;20025;-66
2022/03/17 06:03:53;;;;;;;27.10;14.15;;;;;;;7.44;100.00;99160.13;5063509;28;20032;-66
2022/03/17 06:06:18;;;;;;;33.97;14.65;;;;;;;7.51;100.00;99164.47;5063419;28;20021;-66
2022/03/17 06:08:44;;;;;;;31.75;14.90;;;;;;;7.40;100.00;99164.47;5063462;28;20053;-66
2022/03/17 06:11:09;;;;;;;30.40;14.88;;;;;;;7.44;100.00;99163.59;5063354;28;20021;-66
2022/03/17 06:13:35;;;;;;;31.73;15.27;;;;;;;7.43;100.00;99169.69;5063367;28;20360;-66
2022/03/17 06:16:01;;;;;;;34.42;15.50;;;;;;;7.46;100.00;99167.09;5063445;28;20032;-66
2022/03/17 06:18:26;;;;;;;31.20;15.20;;;;;;;7.45;100.00;99175.84;5063365;28;20092;-66
2022/03/17 06:20:52;;;;;;;33.08;15.30;;;;;;;7.49;100.00;99177.56;5063413;28;20035;-66
2022/03/17 06:23:19;;;;;;;32.95;14.63;;;;;;;7.50;100.00;99179.31;5063355;28;20025;-66
2022/03/17 06:25:45;;;;;;;34.30;15.80;;;;;;;7.50;100.00;99179.31;5063499;28;20017;-66
2022/03/17 06:28:11;;;;;;;36.63;15.55;;;;;;;7.45;100.00;99185.41;5063285;28;20017;-66
2022/03/17 06:30:37;;;;;;;33.63;15.73;;;;;;;7.54;100.00;99191.56;5061538;28;20063;-66
2022/03/17 06:33:07;;;;;;;35.80;16.08;;;;;;;7.58;100.00;99209.03;5063297;28;20251;-66
2022/03/17 06:35:33;;;;;;;39.83;16.55;;;;;;;7.58;100.00;99206.41;5065465;28;20013;-66
2022/03/17 06:38:01;;;;;;;41.35;17.58;;;;;;;7.56;100.00;99205.53;5067117;28;20017;-66
2022/03/17 06:40:28;;;;;;;31.90;14.45;;;;;;;7.55;100.00;99202.91;5066840;28;20160;-66
2022/03/17 06:42:55;;;;;;;31.23;15.52;;;;;;;7.56;100.00;99221.22;5066809;28;20027;-66
2022/03/17 06:45:22;;;;;;;29.08;14.27;;;;;;;7.62;100.00;99223.88;5066649;28;20347;-66
2022/03/17 06:47:47;;;;;;;35.42;15.30;;;;;;;7.70;100.00;99230.00;5066701;28;20048;-66
2022/03/17 06:50:14;;;;;;;28.98;15.05;;;;;;;7.73;100.00;99237.88;5066646;28;20063;-66
2022/03/17 06:52:41;;;;;;;34.65;14.45;;;;;;;7.75;100.00;99249.22;5066623;28;20312;-66
2022/03/17 06:55:07;;;;;;;30.17;13.85;;;;;;;7.79;100.00;99245.72;5066679;28;20016;-66
2022/03/17 06:57:32;;;;;;;34.25;14.93;;;;;;;7.82;100.00;99256.19;5066591;28;20097;-66
2022/03/17 06:59:58;;;;;;;29.70;13.82;;;;;;;7.85;100.00;99255.34;5066496;28;20220;-66
2022/03/17 07:02:24;;;;;;;31.67;16.30;;;;;;;7.88;100.00;99258.84;5066432;28;20254;-66
2022/03/17 07:04:49;;;;;;;37.88;16.35;;;;;;;7.93;100.00;99259.72;5066545;28;20044;-66
2022/03/17 07:07:15;;;;;;;30.63;14.18;;;;;;;7.99;100.00;99270.22;5066389;28;20346;-66
2022/03/17 07:09:43;;;;;;;27.20;14.60;;;;;;;7.98;100.00;99278.94;5066282;28;20032;-66
2022/03/17 07:12:11;;;;;;;41.10;17.02;;;;;;;7.93;100.00;99270.22;5066147;28;20324;-66
2022/03/17 07:14:37;;;;;;;33.70;15.18;;;;;;;7.94;100.00;99277.19;5065938;28;20033;-66
2022/03/17 07:17:02;;;;;;;33.03;15.35;;;;;;;7.96;100.00;99279.81;5066413;28;20028;-66
2022/03/17 07:19:30;;;;;;;35.42;14.35;;;;;;;7.96;100.00;99283.31;5066083;28;20320;-66
2022/03/17 07:21:55;;;;;;;30.65;14.52;;;;;;;8.02;100.00;99280.72;5066071;28;20359;-66
2022/03/17 07:24:21;;;;;;;29.95;14.05;;;;;;;8.10;100.00;99289.44;5066044;28;20024;-66
2022/03/17 07:26:46;;;;;;;31.58;14.18;;;;;;;8.03;100.00;99297.28;5065897;28;20036;-66
2022/03/17 07:29:12;;;;;;;32.05;15.85;;;;;;;8.05;100.00;99304.31;5065950;28;20080;-66
2022/03/17 07:31:37;;;;;;;32.88;13.85;;;;;;;8.16;100.00;99304.31;5065889;28;20021;-66
2022/03/17 07:34:03;;;;;;;30.60;13.90;;;;;;;8.18;100.00;99307.81;5065817;28;20024;-66
2022/03/17 07:36:29;;;;;;;35.30;17.10;;;;;;;8.22;100.00;99305.22;5065779;28;20216;-66
2022/03/17 07:38:55;;;;;;;32.85;15.77;;;;;;;8.26;100.00;99309.59;5065745;28;20091;-66
2022/03/17 07:41:22;;;;;;;34.28;16.35;;;;;;;8.37;100.00;99310.47;5065932;28;20024;-66
2022/03/17 07:43:47;;;;;;;33.33;15.23;;;;;;;8.45;100.00;99324.47;5065883;28;20378;-66
2022/03/17 07:46:13;;;;;;;37.65;17.10;;;;;;;8.51;100.00;99311.34;5065156;28;20021;-66
2022/03/17 07:48:38;;;;;;;66.53;27.38;;;;;;;8.50;100.00;99322.72;5065524;28;20032;-66
2022/03/17 07:51:04;;;;;;;65.65;26.25;;;;;;;8.55;100.00;99323.56;5065501;28;20035;-66
2022/03/17 07:53:29;;;;;;;59.63;25.40;;;;;;;8.64;100.00;99331.44;5065420;28;20021;-66
2022/03/17 07:55:56;;;;;;;52.03;22.63;;;;;;;8.73;100.00;99331.44;5065408;28;20052;-66
2022/03/17 07:58:23;;;;;;;38.53;17.90;;;;;;;8.82;99.93;99331.44;5065375;28;20198;-66
2022/03/17 08:00:53;;;;;;;38.35;17.92;;;;;;;8.89;99.54;99334.06;5065309;28;20083;-66
2022/03/17 08:03:20;;;;;;;47.38;20.30;;;;;;;8.95;99.53;99320.94;5065270;28;20376;-66
2022/03/17 08:05:49;;;;;;;47.30;21.15;;;;;;;8.94;99.64;99321.78;5065183;28;20056;-66
2022/03/17 08:08:18;;;;;;;46.90;20.33;;;;;;;9.02;99.25;99335.78;5065192;28;20086;-66
2022/03/17 08:10:44;;;;;;;43.15;21.10;;;;;;;9.08;100.00;99333.16;5065072;28;20035;-66
2022/03/17 08:13:10;;;;;;;44.42;20.58;;;;;;;9.18;99.72;99333.13;5065100;28;20028;-66
2022/03/17 08:15:36;;;;;;;37.78;17.48;;;;;;;9.27;99.05;99334.84;5065034;28;20101;-66
2022/03/17 08:18:03;;;;;;;39.70;19.10;;;;;;;9.36;98.95;99337.44;5064984;28;20082;-66
2022/03/17 08:20:29;;;;;;;35.63;17.17;;;;;;;9.40;98.33;99331.28;5064948;28;20020;-66
2022/03/17 08:22:55;;;;;;;36.30;17.15;;;;;;;9.45;98.45;99325.13;5064900;28;20024;-66
2022/03/17 08:25:21;;;;;;;33.20;16.25;;;;;;;9.50;98.51;99333.00;5064740;28;20032;-66
2022/03/17 08:27:47;;;;;;;36.55;16.75;;;;;;;9.56;97.96;99335.63;5064770;28;20025;-66
2022/03/17 08:30:12;;;;;;;28.95;15.25;;;;;;;9.61;97.41;99341.69;5064754;28;20021;-66
2022/03/17 08:32:40;;;;;;;34.75;16.58;;;;;;;9.66;97.86;99350.47;5064961;28;20020;-66
2022/03/17 08:35:06;;;;;;;41.92;19.27;;;;;;;9.73;98.04;99360.06;5064662;28;20024;-66
2022/03/17 08:37:38;;;;;;;35.03;16.90;;;;;;;9.82;97.25;99367.91;5064620;28;20028;-66
2022/03/17 08:40:04;;;;;;;40.15;19.88;;;;;;;9.89;96.70;99374.88;5064675;28;20031;-66
2022/03/17 08:42:29;;;;;;;43.92;21.10;;;;;;;10.01;96.64;99385.34;5064452;28;20362;-66
2022/03/17 08:44:55;;;;;;;53.55;22.05;;;;;;;10.14;96.08;99379.16;5064402;28;20025;-66
2022/03/17 08:50:04;;;;;;;50.15;22.35;;;;;;;10.26;95.20;99392.25;5064513;28;20100;-66
2022/03/17 08:52:30;;;;;;;47.15;22.15;;;;;;;10.35;95.21;99392.19;5064354;28;20321;-66
2022/03/17 08:54:56;;;;;;;46.70;21.60;;;;;;;10.35;95.48;99392.19;5064552;28;20040;-66
2022/03/17 08:57:22;;;;;;;43.92;20.67;;;;;;;10.45;95.24;99402.63;5063563;28;20382;-66
2022/03/17 08:59:48;;;;;;;42.92;21.30;;;;;;;10.56;95.90;99397.28;5064171;28;20020;-66
2022/03/17 09:02:14;;;;;;;54.75;23.00;;;;;;;10.62;94.32;99402.53;5064189;28;20025;-66
2022/03/17 09:04:40;;;;;;;45.40;21.85;;;;;;;10.69;93.73;99405.09;5064081;28;20020;-66
2022/03/17 09:07:06;;;;;;;49.95;22.70;;;;;;;10.72;93.68;99406.81;5064138;28;20032;-66
2022/03/17 09:09:37;;;;;;;51.97;22.60;;;;;;;10.77;93.78;99413.81;5064087;28;20048;-66
2022/03/17 09:12:05;;;;;;;43.30;22.30;;;;;;;10.79;93.16;99422.56;5064026;28;20033;-66
2022/03/17 09:14:36;;;;;;;45.05;21.92;;;;;;;10.78;92.65;99426.09;5063815;28;20085;-66
2022/03/17 09:17:03;;;;;;;48.67;22.13;;;;;;;10.81;91.98;99425.19;5063996;28;20033;-66
2022/03/17 09:19:29;;;;;;;46.63;22.38;;;;;;;10.87;90.75;99430.41;5063891;28;20095;-66
2022/03/17 09:21:55;;;;;;;49.35;23.70;;;;;;;10.83;90.91;99432.19;5063933;28;20084;-66
2022/03/17 09:24:20;;;;;;;48.22;22.40;;;;;;;10.80;91.02;99437.47;5063902;28;20036;-66
2022/03/17 09:26:45;;;;;;;43.10;23.60;;;;;;;10.77;91.52;99444.53;5064023;28;20024;-66
2022/03/17 09:29:11;;;;;;;48.08;22.55;;;;;;;10.78;91.93;99443.66;5063857;28;20024;-66
2022/03/17 09:31:36;;;;;;;45.20;23.00;;;;;;;10.81;91.16;99441.00;5063846;28;20025;-66
2022/03/17 09:34:02;;;;;;;52.42;24.77;;;;;;;10.78;91.69;99443.66;5063797;28;20025;-66
2022/03/17 09:36:28;;;;;;;42.33;21.88;;;;;;;10.80;91.24;99448.00;5064022;28;20024;-66
2022/03/17 09:41:37;;;;;;;45.72;22.00;;;;;;;10.83;91.32;99452.41;5063824;28;20052;-66
2022/03/17 09:44:04;;;;;;;47.22;23.27;;;;;;;10.80;90.33;99455.06;5063887;28;20017;-66
2022/03/17 09:46:31;;;;;;;55.58;26.10;;;;;;;10.83;91.36;99458.53;5063611;28;20021;-66
2022/03/17 09:49:01;;;;;;;52.30;24.58;;;;;;;10.85;90.84;99459.41;5063953;28;20272;-66
2022/03/17 09:51:27;;;;;;;51.55;23.55;;;;;;;10.83;90.61;99465.56;5063593;28;20021;-66
2022/03/17 09:53:56;;;;;;;45.28;21.58;;;;;;;10.79;89.85;99458.59;5063624;28;20092;-66
2022/03/17 09:56:23;;;;;;;51.60;24.08;;;;;;;10.79;88.84;99463.84;5063647;28;20017;-66
2022/03/17 09:58:53;;;;;;;47.15;23.17;;;;;;;10.76;88.28;99464.72;5063635;28;20066;-66
2022/03/17 10:01:19;;;;;;;54.47;24.60;;;;;;;10.78;88.19;99470.88;5063516;28;20024;-66
2022/03/17 10:03:45;;;;;;;50.83;25.55;;;;;;;10.69;89.26;99477.94;5063534;28;20025;-66
2022/03/17 10:06:11;;;;;;;61.28;31.58;;;;;;;10.50;88.65;99476.28;5063455;28;20024;-66
2022/03/17 10:08:40;;;;;;;60.90;29.70;;;;;;;10.53;88.06;99481.53;5064430;28;20220;-66
2022/03/17 10:11:06;;;;;;;49.22;25.25;;;;;;;10.55;87.91;99485.06;5067420;28;20063;-66
2022/03/17 10:13:34;;;;;;;52.35;26.67;;;;;;;10.51;88.06;99483.34;5067194;28;20340;-66
2022/03/17 10:16:07;;;;;;;54.30;27.83;;;;;;;10.54;88.92;99493.84;5067329;28;20021;-66
2022/03/17 10:18:36;;;;;;;56.55;27.38;;;;;;;10.38;89.64;99486.91;5067523;28;20087;-66
2022/03/17 10:21:06;;;;;;;54.38;23.45;;;;;;;10.34;90.54;99486.03;5067468;28;20331;-66
2022/03/17 10:23:32;;;;;;;60.22;26.73;;;;;;;10.30;90.87;99488.69;5067120;28;20031;-66
2022/03/17 10:25:57;;;;;;;55.50;26.92;;;;;;;10.34;90.92;99490.41;5067050;28;20057;-66
2022/03/17 10:28:26;;;;;;;60.92;28.08;;;;;;;10.40;90.49;99500.91;5067107;28;20035;-66
2022/03/17 10:31:05;;;;;;;59.80;28.00;;;;;;;10.19;90.58;99506.28;5067026;28;20028;-66
2022/03/17 10:33:32;;;;;;;54.53;27.45;;;;;;;10.19;91.42;99511.56;5067024;28;20316;-66
2022/03/17 10:36:19;;;;;;;63.50;27.98;;;;;;;10.20;91.45;99508.03;5066939;28;20040;-66
2022/03/17 10:38:45;;;;;;;59.88;27.98;;;;;;;10.28;89.80;99515.00;5066987;28;20335;-66
2022/03/17 10:41:12;;;;;;;69.25;29.10;;;;;;;10.20;90.43;99518.56;5066872;28;20029;-66
2022/03/17 10:43:40;;;;;;;58.88;26.80;;;;;;;10.24;90.71;99522.91;5066838;28;20029;-66
2022/03/17 10:46:16;;;;;;;65.32;28.98;;;;;;;10.18;89.55;99520.31;5066698;28;20419;-66
2022/03/17 10:48:55;;;;;;;62.95;29.17;;;;;;;10.11;90.78;99518.59;5066961;28;20308;-66
2022/03/17 10:51:35;;;;;;;68.45;30.42;;;;;;;10.00;90.86;99525.63;5066624;28;20324;-66
2022/03/17 10:54:03;;;;;;;68.57;30.65;;;;;;;10.12;90.85;99528.22;5066641;28;20027;-66
2022/03/17 10:56:28;;;;;;;63.83;30.50;;;;;;;10.09;90.94;99531.75;5066515;28;20024;-66
2022/03/17 10:58:53;;;;;;;57.88;29.50;;;;;;;10.08;90.46;99534.38;5066516;28;20029;-66
2022/03/17 11:01:38;;;;;;;75.30;29.75;;;;;;;10.05;91.56;99544.88;5066449;28;20032;-66
2022/03/17 11:04:04;;;;;;;63.47;28.05;;;;;;;10.03;91.90;99537.00;5066521;28;20020;-66
2022/03/17 11:06:29;;;;;;;64.72;29.20;;;;;;;10.16;92.08;99540.50;5066259;28;20025;-66
2022/03/17 11:08:57;;;;;;;65.03;31.30;;;;;;;10.04;92.05;99543.13;5066310;28;20028;-66
2022/03/17 11:11:23;;;;;;;67.05;30.58;;;;;;;10.03;91.89;99552.78;5066205;28;20279;-66
2022/03/17 11:13:50;;;;;;;69.93;30.70;;;;;;;10.06;92.42;99555.44;5066038;28;20033;-66
2022/03/17 11:16:17;;;;;;;72.45;30.98;;;;;;;9.99;92.29;99561.56;5066209;28;20088;-66
2022/03/17 11:18:44;;;;;;;74.72;31.52;;;;;;;10.04;92.49;99557.19;5066400;28;20089;-66
2022/03/17 11:21:16;;;;;;;69.95;32.00;;;;;;;10.02;91.77;99558.91;5065645;28;20220;-66
2022/03/17 11:23:55;;;;;;;68.68;30.83;;;;;;;10.11;92.19;99560.69;5066037;28;20220;-66
2022/03/17 11:26:41;;;;;;;66.78;30.00;;;;;;;10.14;91.90;99566.81;5065916;28;20032;-66
2022/03/17 11:29:07;;;;;;;66.40;29.77;;;;;;;10.23;91.96;99568.53;5066059;28;20194;-66
2022/03/17 11:31:54;;;;;;;70.68;33.58;;;;;;;10.21;92.27;99567.66;5065936;28;20025;-66
2022/03/17 11:34:38;;;;;;;68.63;30.38;;;;;;;10.26;92.01;99571.16;5066066;28;20024;-66
2022/03/17 11:37:26;;;;;;;61.85;30.05;;;;;;;10.33;91.91;99572.88;5066035;28;20021;-66